Time;durP1;ratioP1;P1;durP2;ratioP2;P2;SDS_P1;SDS_P2;PMS_P1;PMS_P2;Temp;Humidity;BMP_temperature;BMP_pressure;BME280_temperature;BME280_humidity;BME280_pressure;Samples;Min_cycle;Max_cycle;Signal;HPM_P1;HPM_P2
2022/11/04 00:00:16;;;;;;;18.50;8.40;;;;;;;-128.00;-1.00;-1.00;103384;1283;1012567;-77
2022/11/04 00:03:03;;;;;;;20.00;8.00;;;;;;;-128.00;-1.00;-1.00;103459;1268;1009727;-76
2022/11/04 00:05:52;;;;;;;22.50;8.70;;;;;;;-128.00;-1.00;-1.00;103478;1289;1010831;-77
2022/11/04 00:08:39;;;;;;;19.20;7.80;;;;;;;-128.00;-1.00;-1.00;103390;1268;1013686;-77
2022/11/04 00:14:35;;;;;;;24.60;9.50;;;;;;;-128.00;-1.00;-1.00;103453;1283;1012325;-77
2022/11/04 00:17:23;;;;;;;19.70;8.60;;;;;;;-128.00;-1.00;-1.00;103198;1276;1010376;-77
2022/11/04 00:29:31;;;;;;;17.40;7.80;;;;;;;-128.00;-1.00;-1.00;103457;1275;1013390;-77
2022/11/04 00:35:25;;;;;;;16.40;7.20;;;;;;;-128.00;-1.00;-1.00;103338;1284;1011808;-76
2022/11/04 00:38:13;;;;;;;20.30;7.80;;;;;;;-128.00;-1.00;-1.00;103454;1290;1012577;-77
2022/11/04 00:41:01;;;;;;;20.70;7.90;;;;;;;-128.00;-1.00;-1.00;103462;1268;1012376;-77
2022/11/04 00:43:48;;;;;;;18.20;6.80;;;;;;;-128.00;-1.00;-1.00;103447;1275;1012374;-76
2022/11/04 00:46:36;;;;;;;20.20;7.20;;;;;;;-128.00;-1.00;-1.00;103460;1283;1009941;-77
2022/11/04 00:49:24;;;;;;;17.10;6.80;;;;;;;-128.00;-1.00;-1.00;103451;1287;1011258;-77
2022/11/04 00:52:12;;;;;;;21.50;7.00;;;;;;;-128.00;-1.00;-1.00;103468;1288;1012453;-76
2022/11/04 00:55:00;;;;;;;19.90;7.80;;;;;;;-128.00;-1.00;-1.00;103455;1281;1012590;-77
2022/11/04 00:57:47;;;;;;;17.40;7.20;;;;;;;-128.00;-1.00;-1.00;103463;1274;1012725;-77
2022/11/04 01:00:36;;;;;;;18.10;6.50;;;;;;;-128.00;-1.00;-1.00;103449;1289;1009441;-76
2022/11/04 01:03:24;;;;;;;21.50;7.10;;;;;;;-128.00;-1.00;-1.00;103396;1269;1011782;-77
2022/11/04 01:06:13;;;;;;;19.90;6.60;;;;;;;-128.00;-1.00;-1.00;103472;1284;1013093;-77
2022/11/04 01:09:07;;;;;;;14.90;6.10;;;;;;;-128.00;-1.00;-1.00;103450;1283;1011963;-78
2022/11/04 01:11:55;;;;;;;17.50;7.20;;;;;;;-128.00;-1.00;-1.00;103411;1298;1013483;-76
2022/11/04 01:14:43;;;;;;;15.70;6.00;;;;;;;-128.00;-1.00;-1.00;103434;1291;1010176;-77
2022/11/04 01:17:30;;;;;;;19.60;6.10;;;;;;;-128.00;-1.00;-1.00;103330;1288;1011860;-78
2022/11/04 01:20:19;;;;;;;19.20;6.10;;;;;;;-128.00;-1.00;-1.00;103484;1281;1013083;-77
2022/11/04 01:23:06;;;;;;;18.70;5.50;;;;;;;-128.00;-1.00;-1.00;103478;1282;1011994;-78
2022/11/04 01:25:55;;;;;;;13.80;5.40;;;;;;;-128.00;-1.00;-1.00;103446;1289;1013566;-77
2022/11/04 01:28:44;;;;;;;16.80;5.90;;;;;;;-128.00;-1.00;-1.00;103453;1284;1009777;-77
2022/11/04 01:31:32;;;;;;;15.90;6.10;;;;;;;-128.00;-1.00;-1.00;103468;1276;1011007;-76
2022/11/04 01:34:20;;;;;;;14.60;6.10;;;;;;;-128.00;-1.00;-1.00;103460;1276;1012339;-77
2022/11/04 01:37:08;;;;;;;20.20;5.80;;;;;;;-128.00;-1.00;-1.00;103444;1284;1012159;-78
2022/11/04 01:39:55;;;;;;;16.70;5.20;;;;;;;-128.00;-1.00;-1.00;103429;1268;1013030;-77
2022/11/04 01:42:43;;;;;;;17.00;6.00;;;;;;;-128.00;-1.00;-1.00;103479;1287;1009618;-78
2022/11/04 01:45:31;;;;;;;15.90;6.00;;;;;;;-128.00;-1.00;-1.00;103440;1287;1010606;-77
2022/11/04 01:48:31;;;;;;;15.00;5.40;;;;;;;-128.00;-1.00;-1.00;103466;1289;1012953;-76
2022/11/04 01:51:20;;;;;;;16.80;5.50;;;;;;;-128.00;-1.00;-1.00;103366;1295;1012339;-77
2022/11/04 01:54:10;;;;;;;14.00;5.60;;;;;;;-128.00;-1.00;-1.00;103429;1297;1013674;-77
2022/11/04 01:57:00;;;;;;;14.90;5.80;;;;;;;-128.00;-1.00;-1.00;103466;1279;1009231;-77
2022/11/04 01:59:48;;;;;;;18.50;5.90;;;;;;;-128.00;-1.00;-1.00;103393;1287;1010034;-77
2022/11/04 02:02:48;;;;;;;18.20;5.20;;;;;;;-128.00;-1.00;-1.00;103455;1276;1012385;-77
2022/11/04 02:05:38;;;;;;;16.50;5.40;;;;;;;-128.00;-1.00;-1.00;103396;1290;1012690;-77
2022/11/04 02:08:27;;;;;;;14.30;5.40;;;;;;;-128.00;-1.00;-1.00;103496;1273;1013728;-75
2022/11/04 02:12:48;;;;;;;16.60;5.40;;;;;;;-128.00;-1.00;-1.00;103507;1287;1010577;-75
2022/11/04 02:14:23;;;;;;;14.90;5.20;;;;;;;-128.00;-1.00;-1.00;103509;1281;1011744;-78
2022/11/04 02:17:16;;;;;;;14.80;5.20;;;;;;;-128.00;-1.00;-1.00;103526;1288;1012969;-76
2022/11/04 02:20:26;;;;;;;17.10;5.60;;;;;;;-128.00;-1.00;-1.00;103523;1279;1012994;-77
2022/11/04 02:24:04;;;;;;;20.10;5.70;;;;;;;-128.00;-1.00;-1.00;103511;1288;1012620;-77
2022/11/04 02:27:19;;;;;;;17.20;5.50;;;;;;;-128.00;-1.00;-1.00;102995;1288;1009792;-76
2022/11/04 02:30:07;;;;;;;15.70;5.50;;;;;;;-128.00;-1.00;-1.00;103003;1298;1011599;-75
2022/11/04 02:33:20;;;;;;;15.80;5.00;;;;;;;-128.00;-1.00;-1.00;102995;1282;1013555;-76
2022/11/04 02:36:45;;;;;;;18.30;6.50;;;;;;;-128.00;-1.00;-1.00;102980;1278;1012265;-76
2022/11/04 02:39:50;;;;;;;15.00;5.30;;;;;;;-128.00;-1.00;-1.00;102296;1290;1013017;-77
2022/11/04 02:43:01;;;;;;;16.60;5.70;;;;;;;-128.00;-1.00;-1.00;102288;1290;1009454;-77
2022/11/04 02:46:07;;;;;;;17.10;6.00;;;;;;;-128.00;-1.00;-1.00;102321;1305;1010421;-76
2022/11/04 02:49:17;;;;;;;15.10;5.50;;;;;;;-128.00;-1.00;-1.00;102215;1299;1013512;-77
2022/11/04 02:52:10;;;;;;;18.40;6.10;;;;;;;-128.00;-1.00;-1.00;102316;1297;1012158;-77
2022/11/04 02:55:26;;;;;;;17.00;5.40;;;;;;;-128.00;-1.00;-1.00;102326;1303;1013131;-77
2022/11/04 02:58:22;;;;;;;15.40;6.10;;;;;;;-128.00;-1.00;-1.00;102345;1285;1009815;-76
2022/11/04 03:01:16;;;;;;;15.10;5.90;;;;;;;-128.00;-1.00;-1.00;102263;1283;1010929;-77
2022/11/04 03:04:19;;;;;;;14.70;5.30;;;;;;;-128.00;-1.00;-1.00;102927;1296;1012427;-76
2022/11/04 03:07:11;;;;;;;15.70;5.10;;;;;;;-128.00;-1.00;-1.00;102912;1295;1012040;-77
2022/11/04 03:10:09;;;;;;;16.80;5.50;;;;;;;-128.00;-1.00;-1.00;102932;1289;1012535;-76
2022/11/04 03:13:07;;;;;;;16.00;5.90;;;;;;;-128.00;-1.00;-1.00;102899;1280;1010329;-76
2022/11/04 03:16:01;;;;;;;16.30;5.90;;;;;;;-128.00;-1.00;-1.00;103168;1289;1011317;-77
2022/11/04 03:19:03;;;;;;;16.90;5.50;;;;;;;-128.00;-1.00;-1.00;103427;1289;1012888;-78
2022/11/04 03:22:05;;;;;;;17.10;5.80;;;;;;;-128.00;-1.00;-1.00;103519;1274;1012425;-77
2022/11/04 03:24:53;;;;;;;13.50;4.90;;;;;;;-128.00;-1.00;-1.00;103450;1279;1013452;-77
2022/11/04 03:28:00;;;;;;;12.60;4.70;;;;;;;-128.00;-1.00;-1.00;103482;1279;1009933;-76
2022/11/04 03:30:51;;;;;;;16.40;5.80;;;;;;;-128.00;-1.00;-1.00;103415;1288;1011572;-77
2022/11/04 03:33:58;;;;;;;15.20;7.00;;;;;;;-128.00;-1.00;-1.00;103531;1286;1012432;-77
2022/11/04 03:36:46;;;;;;;11.70;4.40;;;;;;;-128.00;-1.00;-1.00;103492;1273;1012774;-76
2022/11/04 03:39:33;;;;;;;13.80;5.30;;;;;;;-128.00;-1.00;-1.00;103510;1280;1012792;-76
2022/11/04 03:42:22;;;;;;;15.00;5.60;;;;;;;-128.00;-1.00;-1.00;103434;1292;1009306;-76
2022/11/04 03:45:11;;;;;;;18.30;5.60;;;;;;;-128.00;-1.00;-1.00;103521;1289;1011206;-77
2022/11/04 03:48:00;;;;;;;15.00;5.50;;;;;;;-128.00;-1.00;-1.00;103524;1273;1012547;-76
2022/11/04 03:50:50;;;;;;;15.40;5.10;;;;;;;-128.00;-1.00;-1.00;103524;1294;1012548;-75
2022/11/04 03:53:38;;;;;;;15.50;5.50;;;;;;;-128.00;-1.00;-1.00;103513;1272;1013015;-75
2022/11/04 03:56:44;;;;;;;12.90;5.20;;;;;;;-128.00;-1.00;-1.00;103409;1280;1009779;-75
2022/11/04 04:00:02;;;;;;;14.70;5.40;;;;;;;-128.00;-1.00;-1.00;103519;1289;1010351;-75
2022/11/04 04:03:20;;;;;;;16.70;4.90;;;;;;;-128.00;-1.00;-1.00;103468;1282;1013446;-76
2022/11/04 04:06:24;;;;;;;14.80;6.00;;;;;;;-128.00;-1.00;-1.00;103449;1276;1012314;-75
2022/11/04 04:09:26;;;;;;;17.30;5.70;;;;;;;-128.00;-1.00;-1.00;103418;1281;1012996;-76
2022/11/04 04:12:36;;;;;;;14.40;4.70;;;;;;;-128.00;-1.00;-1.00;103415;1289;1009976;-77
2022/11/04 04:15:34;;;;;;;12.60;5.40;;;;;;;-128.00;-1.00;-1.00;103520;1286;1010507;-76
2022/11/04 04:18:33;;;;;;;12.50;4.80;;;;;;;-128.00;-1.00;-1.00;103140;1292;1012240;-77
2022/11/04 04:21:33;;;;;;;12.80;5.20;;;;;;;-128.00;-1.00;-1.00;103400;1276;1012314;-76
2022/11/04 04:27:40;;;;;;;14.40;4.90;;;;;;;-128.00;-1.00;-1.00;103386;1280;1009253;-78
2022/11/04 04:30:29;;;;;;;12.90;4.80;;;;;;;-128.00;-1.00;-1.00;103416;1287;1011677;-78
2022/11/04 04:33:18;;;;;;;15.40;5.20;;;;;;;-128.00;-1.00;-1.00;103510;1273;1011979;-77
2022/11/04 04:36:08;;;;;;;14.00;5.70;;;;;;;-128.00;-1.00;-1.00;103365;1283;1012522;-77
2022/11/04 04:45:26;;;;;;;14.30;4.70;;;;;;;-128.00;-1.00;-1.00;103510;1281;1010578;-76
2022/11/04 04:48:15;;;;;;;13.80;5.20;;;;;;;-128.00;-1.00;-1.00;103366;1274;1012723;-76
2022/11/04 04:51:03;;;;;;;18.90;6.10;;;;;;;-128.00;-1.00;-1.00;103505;1271;1012830;-76
2022/11/04 04:53:51;;;;;;;15.00;5.30;;;;;;;-128.00;-1.00;-1.00;103487;1288;1012961;-77
2022/11/04 04:56:39;;;;;;;12.90;5.20;;;;;;;-128.00;-1.00;-1.00;103510;1279;1009410;-76
2022/11/04 04:59:26;;;;;;;14.70;4.80;;;;;;;-128.00;-1.00;-1.00;103519;1279;1010226;-76
2022/11/04 05:02:14;;;;;;;14.00;4.90;;;;;;;-128.00;-1.00;-1.00;103502;1289;1012769;-77
2022/11/04 05:05:03;;;;;;;17.30;5.40;;;;;;;-128.00;-1.00;-1.00;103398;1282;1013175;-76
2022/11/04 05:07:51;;;;;;;16.80;5.40;;;;;;;-128.00;-1.00;-1.00;103489;1279;1013467;-76
2022/11/04 05:10:39;;;;;;;13.80;5.10;;;;;;;-128.00;-1.00;-1.00;103475;1279;1009613;-76
2022/11/04 05:13:30;;;;;;;15.70;5.30;;;;;;;-128.00;-1.00;-1.00;103487;1280;1011406;-76
2022/11/04 05:16:18;;;;;;;18.90;5.20;;;;;;;-128.00;-1.00;-1.00;103501;1272;1012862;-76
2022/11/04 05:19:06;;;;;;;12.10;5.20;;;;;;;-128.00;-1.00;-1.00;103516;1286;1013311;-77
2022/11/04 05:21:54;;;;;;;15.70;5.30;;;;;;;-128.00;-1.00;-1.00;103511;1279;1012924;-77
2022/11/04 05:24:42;;;;;;;12.90;4.70;;;;;;;-128.00;-1.00;-1.00;103488;1279;1009482;-76
2022/11/04 05:27:29;;;;;;;14.80;4.90;;;;;;;-128.00;-1.00;-1.00;103484;1289;1011890;-76
2022/11/04 05:30:17;;;;;;;14.10;5.10;;;;;;;-128.00;-1.00;-1.00;103702;1288;1012384;-76
2022/11/04 05:33:05;;;;;;;14.20;5.50;;;;;;;-128.00;-1.00;-1.00;103591;1296;1012158;-77
2022/11/04 05:35:53;;;;;;;18.60;5.70;;;;;;;-128.00;-1.00;-1.00;103532;1280;1012486;-76
2022/11/04 05:38:43;;;;;;;16.70;5.40;;;;;;;-128.00;-1.00;-1.00;103491;1286;1009697;-77
2022/11/04 05:41:32;;;;;;;15.30;5.50;;;;;;;-128.00;-1.00;-1.00;103505;1288;1011687;-76
2022/11/04 05:44:20;;;;;;;16.30;5.10;;;;;;;-128.00;-1.00;-1.00;103505;1280;1012753;-76
2022/11/04 05:47:08;;;;;;;16.10;5.60;;;;;;;-128.00;-1.00;-1.00;103493;1282;1012748;-75
2022/11/04 05:49:56;;;;;;;16.00;5.10;;;;;;;-128.00;-1.00;-1.00;103454;1282;1012461;-76
2022/11/04 05:52:44;;;;;;;15.30;5.20;;;;;;;-128.00;-1.00;-1.00;103482;1288;1010471;-76
2022/11/04 05:55:32;;;;;;;19.20;5.50;;;;;;;-128.00;-1.00;-1.00;103504;1287;1011432;-76
2022/11/04 05:58:20;;;;;;;15.10;5.30;;;;;;;-128.00;-1.00;-1.00;103486;1288;1013191;-76
2022/11/04 06:01:28;;;;;;;16.70;5.50;;;;;;;-128.00;-1.00;-1.00;103407;1279;1012167;-77
2022/11/04 06:04:18;;;;;;;14.10;5.30;;;;;;;-128.00;-1.00;-1.00;103370;1289;1013299;-76
2022/11/04 06:07:06;;;;;;;15.50;5.20;;;;;;;-128.00;-1.00;-1.00;103463;1287;1009202;-77
2022/11/04 06:09:54;;;;;;;15.40;5.40;;;;;;;-128.00;-1.00;-1.00;103461;1294;1011321;-76
2022/11/04 06:12:41;;;;;;;13.90;5.60;;;;;;;-128.00;-1.00;-1.00;103449;1289;1013299;-77
2022/11/04 06:15:29;;;;;;;15.30;5.60;;;;;;;-128.00;-1.00;-1.00;103442;1289;1012859;-77
2022/11/04 06:18:17;;;;;;;13.50;5.50;;;;;;;-128.00;-1.00;-1.00;103430;1281;1012189;-76
2022/11/04 06:21:21;;;;;;;14.10;4.70;;;;;;;-128.00;-1.00;-1.00;103429;1288;1009603;-76
2022/11/04 06:24:08;;;;;;;13.60;5.40;;;;;;;-128.00;-1.00;-1.00;103440;1271;1011450;-77
2022/11/04 06:26:56;;;;;;;15.50;5.20;;;;;;;-128.00;-1.00;-1.00;103445;1286;1012960;-77
2022/11/04 06:29:44;;;;;;;14.00;5.00;;;;;;;-128.00;-1.00;-1.00;103444;1279;1012588;-77
2022/11/04 06:32:32;;;;;;;14.00;5.30;;;;;;;-128.00;-1.00;-1.00;103389;1271;1012741;-76
2022/11/04 06:35:19;;;;;;;16.20;5.30;;;;;;;-128.00;-1.00;-1.00;103450;1279;1010411;-77
2022/11/04 06:38:07;;;;;;;15.50;5.00;;;;;;;-128.00;-1.00;-1.00;103426;1288;1011640;-77
2022/11/04 06:40:56;;;;;;;13.20;5.00;;;;;;;-128.00;-1.00;-1.00;103431;1271;1012958;-76
2022/11/04 06:43:44;;;;;;;11.90;5.00;;;;;;;-128.00;-1.00;-1.00;103442;1281;1013021;-77
2022/11/04 06:46:40;;;;;;;14.10;5.50;;;;;;;-128.00;-1.00;-1.00;103476;1271;1012375;-76
2022/11/04 06:49:28;;;;;;;12.90;5.60;;;;;;;-128.00;-1.00;-1.00;103450;1272;1010125;-78
2022/11/04 06:52:15;;;;;;;12.90;4.50;;;;;;;-128.00;-1.00;-1.00;103246;1294;1011039;-78
2022/11/04 06:55:04;;;;;;;13.50;4.60;;;;;;;-128.00;-1.00;-1.00;103455;1289;1012725;-76
2022/11/04 06:57:52;;;;;;;15.80;5.90;;;;;;;-128.00;-1.00;-1.00;103405;1276;1012594;-77
2022/11/04 07:00:40;;;;;;;16.60;5.10;;;;;;;-128.00;-1.00;-1.00;103431;1276;1012430;-78
2022/11/04 07:03:28;;;;;;;14.90;5.90;;;;;;;-128.00;-1.00;-1.00;103452;1271;1010257;-78
2022/11/04 07:06:17;;;;;;;12.50;5.30;;;;;;;-128.00;-1.00;-1.00;103457;1287;1011471;-78
2022/11/04 07:09:05;;;;;;;13.10;5.10;;;;;;;-128.00;-1.00;-1.00;103333;1282;1013008;-78
2022/11/04 07:11:53;;;;;;;13.30;5.20;;;;;;;-128.00;-1.00;-1.00;103456;1271;1012030;-79
2022/11/04 07:14:41;;;;;;;13.90;5.10;;;;;;;-128.00;-1.00;-1.00;103439;1289;1012146;-76
2022/11/04 07:17:29;;;;;;;13.60;4.80;;;;;;;-128.00;-1.00;-1.00;103416;1276;1009417;-78
2022/11/04 07:20:17;;;;;;;13.10;5.00;;;;;;;-128.00;-1.00;-1.00;103466;1289;1011620;-77
2022/11/04 07:23:05;;;;;;;14.00;5.40;;;;;;;-128.00;-1.00;-1.00;103434;1276;1012982;-76
2022/11/04 07:25:56;;;;;;;15.50;7.00;;;;;;;-128.00;-1.00;-1.00;103444;1268;1012133;-76
2022/11/04 07:28:44;;;;;;;14.20;5.70;;;;;;;-128.00;-1.00;-1.00;103458;1287;1012654;-77
2022/11/04 07:31:33;;;;;;;12.80;5.30;;;;;;;-128.00;-1.00;-1.00;103428;1289;1010054;-77
2022/11/04 07:34:21;;;;;;;14.50;5.80;;;;;;;-128.00;-1.00;-1.00;103416;1291;1010587;-78
2022/11/04 07:37:09;;;;;;;14.30;5.80;;;;;;;-128.00;-1.00;-1.00;103435;1276;1012453;-77
2022/11/04 07:39:56;;;;;;;16.20;5.50;;;;;;;-128.00;-1.00;-1.00;103417;1289;1013669;-76
2022/11/04 07:42:44;;;;;;;13.60;5.60;;;;;;;-128.00;-1.00;-1.00;103419;1284;1012966;-77
2022/11/04 07:45:36;;;;;;;14.00;5.30;;;;;;;-128.00;-1.00;-1.00;103392;1289;1010388;-78
2022/11/04 07:48:23;;;;;;;13.00;5.80;;;;;;;-128.00;-1.00;-1.00;103434;1274;1011335;-77
2022/11/04 07:51:16;;;;;;;13.80;5.80;;;;;;;-128.00;-1.00;-1.00;103433;1279;1012579;-76
2022/11/04 07:54:04;;;;;;;14.00;5.30;;;;;;;-128.00;-1.00;-1.00;103434;1283;1012179;-77
2022/11/04 07:56:51;;;;;;;13.30;5.40;;;;;;;-128.00;-1.00;-1.00;103463;1283;1012684;-78
2022/11/04 07:59:39;;;;;;;14.10;5.70;;;;;;;-128.00;-1.00;-1.00;103454;1288;1010018;-78
2022/11/04 08:02:27;;;;;;;14.60;5.70;;;;;;;-128.00;-1.00;-1.00;103397;1287;1010913;-77
2022/11/04 08:05:21;;;;;;;15.80;6.30;;;;;;;-128.00;-1.00;-1.00;103428;1287;1012248;-78
2022/11/04 08:08:09;;;;;;;15.10;5.80;;;;;;;-128.00;-1.00;-1.00;103455;1279;1012582;-77
2022/11/04 08:11:03;;;;;;;16.20;5.50;;;;;;;-128.00;-1.00;-1.00;103509;1280;1012507;-78
2022/11/04 08:13:51;;;;;;;15.70;6.40;;;;;;;-128.00;-1.00;-1.00;103322;1280;1009558;-77
2022/11/04 08:16:39;;;;;;;13.70;6.10;;;;;;;-128.00;-1.00;-1.00;103501;1282;1011123;-76
2022/11/04 08:19:27;;;;;;;14.00;6.20;;;;;;;-128.00;-1.00;-1.00;103512;1280;1012372;-77
2022/11/04 08:22:15;;;;;;;16.00;6.00;;;;;;;-128.00;-1.00;-1.00;103475;1287;1012664;-78
2022/11/04 08:25:04;;;;;;;14.60;5.90;;;;;;;-128.00;-1.00;-1.00;103342;1270;1013023;-78
2022/11/04 08:27:52;;;;;;;11.60;5.70;;;;;;;-128.00;-1.00;-1.00;103466;1288;1009736;-77
2022/11/04 08:31:04;;;;;;;13.50;5.80;;;;;;;-128.00;-1.00;-1.00;103519;1286;1011663;-78
2022/11/04 08:33:54;;;;;;;12.60;5.60;;;;;;;-128.00;-1.00;-1.00;103418;1272;1011899;-77
2022/11/04 08:36:42;;;;;;;14.90;6.20;;;;;;;-128.00;-1.00;-1.00;103485;1281;1012250;-77
2022/11/04 08:39:30;;;;;;;14.20;6.20;;;;;;;-128.00;-1.00;-1.00;103486;1287;1013015;-78
2022/11/04 08:42:21;;;;;;;12.50;4.70;;;;;;;-128.00;-1.00;-1.00;103342;1296;1009423;-77
2022/11/04 08:45:09;;;;;;;13.70;5.40;;;;;;;-128.00;-1.00;-1.00;103473;1279;1011604;-77
2022/11/04 08:47:56;;;;;;;14.90;5.60;;;;;;;-128.00;-1.00;-1.00;103519;1281;1012673;-75
2022/11/04 08:50:55;;;;;;;11.40;5.40;;;;;;;-128.00;-1.00;-1.00;103467;1279;1012537;-78
2022/11/04 08:53:43;;;;;;;15.60;7.30;;;;;;;-128.00;-1.00;-1.00;103425;1280;1012979;-78
2022/11/04 08:56:35;;;;;;;13.40;6.10;;;;;;;-128.00;-1.00;-1.00;103500;1280;1009773;-76
2022/11/04 08:59:23;;;;;;;15.40;6.60;;;;;;;-128.00;-1.00;-1.00;103453;1283;1010862;-76
2022/11/04 09:02:17;;;;;;;14.60;6.00;;;;;;;-128.00;-1.00;-1.00;103418;1276;1011814;-77
2022/11/04 09:05:05;;;;;;;11.10;5.30;;;;;;;-128.00;-1.00;-1.00;103491;1280;1012608;-78
2022/11/04 09:07:54;;;;;;;13.30;5.60;;;;;;;-128.00;-1.00;-1.00;103481;1273;1013952;-79
2022/11/04 09:10:46;;;;;;;13.40;5.50;;;;;;;-128.00;-1.00;-1.00;103514;1273;1010549;-78
2022/11/04 09:13:36;;;;;;;10.50;5.50;;;;;;;-128.00;-1.00;-1.00;103400;1282;1010342;-76
2022/11/04 09:16:31;;;;;;;14.70;5.80;;;;;;;-128.00;-1.00;-1.00;103480;1289;1013199;-78
2022/11/04 09:19:18;;;;;;;14.60;5.70;;;;;;;-128.00;-1.00;-1.00;103481;1273;1012385;-77
2022/11/04 09:22:07;;;;;;;11.60;5.80;;;;;;;-128.00;-1.00;-1.00;103528;1280;1013229;-79
2022/11/04 09:24:54;;;;;;;11.90;5.10;;;;;;;-128.00;-1.00;-1.00;103508;1272;1009694;-76
2022/11/04 09:27:42;;;;;;;13.40;5.50;;;;;;;-128.00;-1.00;-1.00;103512;1288;1010206;-77
2022/11/04 09:30:31;;;;;;;13.20;5.40;;;;;;;-128.00;-1.00;-1.00;103511;1273;1012030;-77
2022/11/04 09:33:19;;;;;;;14.80;5.50;;;;;;;-128.00;-1.00;-1.00;103471;1281;1012822;-77
2022/11/04 09:36:09;;;;;;;10.90;5.30;;;;;;;-128.00;-1.00;-1.00;103490;1280;1013487;-77
2022/11/04 09:38:57;;;;;;;13.10;5.50;;;;;;;-128.00;-1.00;-1.00;103417;1269;1010027;-77
2022/11/04 09:42:13;;;;;;;12.60;5.70;;;;;;;-128.00;-1.00;-1.00;103503;1287;1010941;-77
2022/11/04 09:45:25;;;;;;;13.80;5.70;;;;;;;-128.00;-1.00;-1.00;103477;1289;1013107;-78
2022/11/04 09:48:38;;;;;;;13.60;6.00;;;;;;;-128.00;-1.00;-1.00;103369;1276;1012920;-77
2022/11/04 09:51:26;;;;;;;16.40;6.50;;;;;;;-128.00;-1.00;-1.00;103376;1281;1012688;-77
2022/11/04 09:54:52;;;;;;;12.50;6.10;;;;;;;-128.00;-1.00;-1.00;103504;1281;1011008;-76
2022/11/04 09:57:39;;;;;;;13.30;5.40;;;;;;;-128.00;-1.00;-1.00;103412;1275;1010963;-77
2022/11/04 10:00:35;;;;;;;13.40;6.10;;;;;;;-128.00;-1.00;-1.00;103477;1271;1012117;-78
2022/11/04 10:04:08;;;;;;;13.80;6.50;;;;;;;-128.00;-1.00;-1.00;103436;1283;1012034;-76
2022/11/04 10:07:51;;;;;;;12.30;5.60;;;;;;;-128.00;-1.00;-1.00;103499;1276;1013576;-77
2022/11/04 10:10:55;;;;;;;12.90;5.80;;;;;;;-128.00;-1.00;-1.00;103434;1273;1009741;-78
2022/11/04 10:14:15;;;;;;;15.20;6.80;;;;;;;-128.00;-1.00;-1.00;103491;1281;1010482;-77
2022/11/04 10:17:34;;;;;;;14.20;5.60;;;;;;;-128.00;-1.00;-1.00;103499;1273;1013490;-77
2022/11/04 10:21:08;;;;;;;11.50;5.60;;;;;;;-128.00;-1.00;-1.00;103485;1273;1012234;-76
2022/11/04 10:24:06;;;;;;;13.80;6.20;;;;;;;-128.00;-1.00;-1.00;103493;1288;1012263;-76
2022/11/04 10:27:03;;;;;;;11.50;5.60;;;;;;;-128.00;-1.00;-1.00;103494;1288;1009513;-78
2022/11/04 10:30:21;;;;;;;12.80;5.20;;;;;;;-128.00;-1.00;-1.00;103494;1287;1010941;-77
2022/11/04 10:33:34;;;;;;;14.40;6.20;;;;;;;-128.00;-1.00;-1.00;103390;1284;1012461;-76
2022/11/04 10:36:23;;;;;;;13.50;5.90;;;;;;;-128.00;-1.00;-1.00;103497;1280;1012582;-76
2022/11/04 10:39:26;;;;;;;14.30;6.00;;;;;;;-128.00;-1.00;-1.00;103404;1283;1012706;-77
2022/11/04 10:42:21;;;;;;;16.10;6.10;;;;;;;-128.00;-1.00;-1.00;103390;1273;1009602;-77
2022/11/04 10:45:13;;;;;;;15.00;6.40;;;;;;;-128.00;-1.00;-1.00;103459;1288;1010633;-78
2022/11/04 10:48:23;;;;;;;14.60;5.70;;;;;;;-128.00;-1.00;-1.00;103407;1276;1012798;-78
2022/11/04 10:51:11;;;;;;;18.20;6.00;;;;;;;-128.00;-1.00;-1.00;103484;1275;1012262;-77
2022/11/04 10:54:01;;;;;;;16.30;6.80;;;;;;;-128.00;-1.00;-1.00;103509;1273;1012495;-76
2022/11/04 10:56:54;;;;;;;14.30;6.50;;;;;;;-128.00;-1.00;-1.00;103500;1288;1010006;-77
2022/11/04 10:59:54;;;;;;;16.60;7.30;;;;;;;-128.00;-1.00;-1.00;103492;1281;1011644;-78
2022/11/04 11:02:46;;;;;;;14.50;6.30;;;;;;;-128.00;-1.00;-1.00;103487;1289;1013316;-77
2022/11/04 11:05:34;;;;;;;14.50;6.50;;;;;;;-128.00;-1.00;-1.00;103420;1281;1011789;-76
2022/11/04 11:08:42;;;;;;;14.60;7.00;;;;;;;-128.00;-1.00;-1.00;103452;1285;1012515;-79
2022/11/04 11:11:46;;;;;;;13.90;6.10;;;;;;;-128.00;-1.00;-1.00;103503;1288;1009074;-79
2022/11/04 11:14:37;;;;;;;14.30;6.60;;;;;;;-128.00;-1.00;-1.00;103442;1275;1010803;-79
2022/11/04 11:17:33;;;;;;;13.20;6.20;;;;;;;-128.00;-1.00;-1.00;103466;1288;1013318;-77
2022/11/04 11:20:25;;;;;;;14.60;6.40;;;;;;;-128.00;-1.00;-1.00;103523;1272;1011786;-77
2022/11/04 11:23:38;;;;;;;19.30;7.70;;;;;;;-128.00;-1.00;-1.00;103486;1273;1012855;-78
2022/11/04 11:26:31;;;;;;;14.40;6.40;;;;;;;-128.00;-1.00;-1.00;103459;1281;1009157;-77
2022/11/04 11:29:30;;;;;;;18.20;6.90;;;;;;;-128.00;-1.00;-1.00;103426;1289;1011454;-78
2022/11/04 11:32:30;;;;;;;14.90;6.50;;;;;;;-128.00;-1.00;-1.00;103483;1288;1013030;-76
2022/11/04 11:35:22;;;;;;;14.10;6.00;;;;;;;-128.00;-1.00;-1.00;103397;1273;1012478;-76
2022/11/04 11:38:19;;;;;;;13.70;5.80;;;;;;;-128.00;-1.00;-1.00;103357;1272;1012495;-78
2022/11/04 11:41:11;;;;;;;14.00;6.20;;;;;;;-128.00;-1.00;-1.00;103356;1283;1010302;-77
2022/11/04 11:44:30;;;;;;;17.40;6.60;;;;;;;-128.00;-1.00;-1.00;103490;1281;1010824;-76
2022/11/04 11:47:24;;;;;;;14.00;6.20;;;;;;;-128.00;-1.00;-1.00;103492;1288;1012732;-77
2022/11/04 11:50:23;;;;;;;14.40;6.60;;;;;;;-128.00;-1.00;-1.00;103512;1272;1012782;-77
2022/11/04 11:53:19;;;;;;;15.20;7.00;;;;;;;-128.00;-1.00;-1.00;103477;1280;1013538;-77
2022/11/04 11:56:23;;;;;;;13.50;7.00;;;;;;;-128.00;-1.00;-1.00;103493;1285;1009968;-78
2022/11/04 11:59:46;;;;;;;15.80;6.60;;;;;;;-128.00;-1.00;-1.00;103515;1285;1010741;-76
2022/11/04 12:03:19;;;;;;;13.80;7.00;;;;;;;-128.00;-1.00;-1.00;103499;1280;1013128;-76
2022/11/04 12:06:39;;;;;;;15.60;6.70;;;;;;;-128.00;-1.00;-1.00;103519;1273;1012144;-78
2022/11/04 12:10:27;;;;;;;16.40;7.30;;;;;;;-128.00;-1.00;-1.00;103469;1272;1013268;-77
2022/11/04 12:14:01;;;;;;;15.80;6.70;;;;;;;-128.00;-1.00;-1.00;103407;1289;1009321;-77
2022/11/04 12:17:14;;;;;;;15.00;6.80;;;;;;;-128.00;-1.00;-1.00;103450;1288;1011260;-76
2022/11/04 12:20:34;;;;;;;16.70;7.10;;;;;;;-128.00;-1.00;-1.00;103361;1282;1012840;-76
2022/11/04 12:23:49;;;;;;;15.50;7.50;;;;;;;-128.00;-1.00;-1.00;103478;1265;1012815;-76
2022/11/04 12:26:53;;;;;;;15.20;7.30;;;;;;;-128.00;-1.00;-1.00;103481;1273;1013662;-78
2022/11/04 12:30:02;;;;;;;15.50;7.30;;;;;;;-128.00;-1.00;-1.00;103413;1272;1010035;-76
2022/11/04 12:33:41;;;;;;;18.90;8.00;;;;;;;-128.00;-1.00;-1.00;103498;1281;1010488;-77
2022/11/04 12:36:47;;;;;;;19.20;7.80;;;;;;;-128.00;-1.00;-1.00;103373;1289;1012616;-77
2022/11/04 12:39:48;;;;;;;16.80;8.30;;;;;;;-128.00;-1.00;-1.00;103415;1272;1012425;-78
2022/11/04 12:42:57;;;;;;;14.00;6.90;;;;;;;-128.00;-1.00;-1.00;103474;1288;1012390;-78
2022/11/04 12:46:25;;;;;;;17.80;7.10;;;;;;;-128.00;-1.00;-1.00;103480;1286;1009802;-78
2022/11/04 12:49:40;;;;;;;17.20;7.70;;;;;;;-128.00;-1.00;-1.00;103378;1281;1010612;-77
2022/11/04 12:52:41;;;;;;;16.20;7.10;;;;;;;-128.00;-1.00;-1.00;103477;1273;1012818;-77
2022/11/04 12:55:54;;;;;;;16.40;8.30;;;;;;;-128.00;-1.00;-1.00;103506;1273;1012230;-78
2022/11/04 12:59:24;;;;;;;17.00;7.80;;;;;;;-128.00;-1.00;-1.00;103483;1269;1012919;-78
2022/11/04 13:02:25;;;;;;;17.60;7.30;;;;;;;-128.00;-1.00;-1.00;103484;1288;1009876;-77
2022/11/04 13:06:12;;;;;;;15.70;7.40;;;;;;;-128.00;-1.00;-1.00;103453;1289;1010553;-79
2022/11/04 13:09:08;;;;;;;17.40;6.90;;;;;;;-128.00;-1.00;-1.00;102794;1292;1012793;-77
2022/11/04 13:12:08;;;;;;;16.80;7.10;;;;;;;-128.00;-1.00;-1.00;102756;1284;1012631;-77
2022/11/04 13:15:23;;;;;;;15.30;7.30;;;;;;;-128.00;-1.00;-1.00;102683;1300;1012031;-77
2022/11/04 13:18:17;;;;;;;16.30;7.40;;;;;;;-128.00;-1.00;-1.00;102692;1292;1010363;-77
2022/11/04 13:21:15;;;;;;;16.40;7.40;;;;;;;-128.00;-1.00;-1.00;102819;1298;1010968;-77
2022/11/04 13:24:24;;;;;;;17.10;7.50;;;;;;;-128.00;-1.00;-1.00;102687;1292;1012599;-77
2022/11/04 13:27:20;;;;;;;15.70;6.80;;;;;;;-128.00;-1.00;-1.00;102684;1284;1012589;-77
2022/11/04 13:31:11;;;;;;;15.80;7.10;;;;;;;-128.00;-1.00;-1.00;102629;1285;1012712;-78
2022/11/04 13:34:13;;;;;;;14.60;7.40;;;;;;;-128.00;-1.00;-1.00;102285;1297;1010159;-78
2022/11/04 13:37:36;;;;;;;15.00;6.70;;;;;;;-128.00;-1.00;-1.00;102363;1297;1010644;-77
2022/11/04 13:40:40;;;;;;;16.30;8.40;;;;;;;-128.00;-1.00;-1.00;102282;1290;1012965;-77
2022/11/04 13:43:38;;;;;;;16.80;8.10;;;;;;;-128.00;-1.00;-1.00;102135;1290;1012016;-77
2022/11/04 13:46:32;;;;;;;15.60;7.10;;;;;;;-128.00;-1.00;-1.00;102743;1281;1012315;-78